Time;durP1;ratioP1;P1;durP2;ratioP2;P2;SDS_P1;SDS_P2;PMS_P1;PMS_P2;Temp;Humidity;BMP_temperature;BMP_pressure;BME280_temperature;BME280_humidity;BME280_pressure;Samples;Min_cycle;Max_cycle;Signal;HPM_P1;HPM_P2
2022/01/12 00:01:43;;;;;;;8.93;4.92;;;;;;;-8.70;53.83;100689.45;1804363;79;20910;-40
2022/01/12 00:04:10;;;;;;;9.30;4.80;;;;;;;-8.71;53.84;100687.82;1804472;79;20942;-40
2022/01/12 00:06:37;;;;;;;6.45;4.47;;;;;;;-8.73;53.77;100689.86;1803664;79;21009;-40
2022/01/12 00:09:08;;;;;;;9.25;5.00;;;;;;;-8.73;53.69;100692.48;1804577;79;21072;-40
2022/01/12 00:11:35;;;;;;;7.75;4.72;;;;;;;-8.75;53.53;100697.13;1804320;79;22439;-40
2022/01/12 00:14:03;;;;;;;10.50;4.80;;;;;;;-8.76;53.32;100698.66;1804574;79;21560;-40
2022/01/12 00:16:31;;;;;;;8.60;4.80;;;;;;;-8.79;53.45;100695.91;1780360;79;20993;-40
2022/01/12 00:18:58;;;;;;;8.63;4.65;;;;;;;-8.83;53.51;100693.38;1804402;79;20957;-40
2022/01/12 00:21:24;;;;;;;8.55;5.30;;;;;;;-8.83;53.78;100682.38;1804684;79;21119;-40
2022/01/12 00:23:51;;;;;;;9.15;4.22;;;;;;;-8.83;53.78;100682.38;1804651;79;21091;-39
2022/01/12 00:34:23;;;;;;;10.58;4.97;;;;;;;-8.87;53.59;100697.42;1804614;79;21033;-41
2022/01/12 00:36:49;;;;;;;10.18;5.92;;;;;;;-8.91;53.60;100692.27;1804633;79;21543;-41
2022/01/12 00:39:16;;;;;;;11.97;6.05;;;;;;;-8.93;53.52;100695.59;1804418;79;21491;-41
2022/01/12 00:41:43;;;;;;;11.28;4.95;;;;;;;-8.95;53.47;100687.09;1799634;79;21649;-42
2022/01/12 00:44:11;;;;;;;10.40;5.30;;;;;;;-9.02;53.52;100689.72;1804517;79;21512;-42
2022/01/12 00:46:39;;;;;;;13.05;5.53;;;;;;;-9.00;53.63;100692.13;1804719;79;21088;-41
2022/01/12 00:49:05;;;;;;;18.25;7.80;;;;;;;-8.97;53.42;100690.44;1804629;79;21099;-41
2022/01/12 00:51:34;;;;;;;17.20;7.60;;;;;;;-8.97;53.42;100690.44;1804752;79;20933;-42
2022/01/12 00:54:01;;;;;;;19.35;8.13;;;;;;;-8.96;53.83;100692.06;1804644;79;20990;-41
2022/01/12 00:56:28;;;;;;;20.10;9.45;;;;;;;-9.29;53.70;100632.88;1804295;79;20961;-41
2022/01/12 00:58:55;;;;;;;25.77;10.18;;;;;;;-9.00;53.97;100693.44;1804629;79;21037;-41
2022/01/12 01:01:22;;;;;;;27.75;11.40;;;;;;;-8.96;54.18;100697.31;1804689;79;21122;-41
2022/01/12 01:03:49;;;;;;;26.35;11.12;;;;;;;-8.92;54.30;100695.91;1804487;79;21025;-41
2022/01/12 01:06:16;;;;;;;44.70;12.78;;;;;;;-8.95;54.50;100698.41;1804778;79;21016;-41
2022/01/12 01:08:48;;;;;;;22.57;9.07;;;;;;;-9.42;54.27;100627.61;1799911;79;21006;-41
2022/01/12 01:11:14;;;;;;;28.83;13.10;;;;;;;-9.05;54.44;100693.26;1797230;79;21831;-41
2022/01/12 01:13:48;;;;;;;29.52;13.38;;;;;;;-9.05;54.73;100701.14;1797148;79;21107;-41
2022/01/12 01:16:20;;;;;;;29.00;13.43;;;;;;;-9.04;54.67;100696.16;1796438;79;21489;-41
2022/01/12 01:26:45;;;;;;;19.12;10.35;;;;;;;-9.18;55.05;100692.70;1797171;79;20910;-41
2022/01/12 01:29:12;;;;;;;14.80;7.10;;;;;;;-9.17;55.55;100693.52;1797448;79;20973;-41
2022/01/12 01:31:40;;;;;;;11.18;6.33;;;;;;;-9.14;55.75;100693.92;1797542;79;21028;-41
2022/01/12 01:34:13;;;;;;;9.20;5.17;;;;;;;-9.13;55.79;100694.23;1797772;79;21037;-41
2022/01/12 01:36:40;;;;;;;12.75;4.67;;;;;;;-9.16;55.89;100692.52;1795839;79;21025;-41
2022/01/12 01:39:11;;;;;;;9.98;4.85;;;;;;;-9.21;56.05;100689.67;1797414;79;21131;-41
2022/01/12 01:41:40;;;;;;;10.83;5.30;;;;;;;-9.29;56.31;100692.77;1797328;79;21036;-42
2022/01/12 01:54:34;;;;;;;7.03;4.15;;;;;;;-9.03;55.95;100706.98;1797337;79;20922;-41
2022/01/12 01:57:01;;;;;;;9.85;4.62;;;;;;;-9.05;56.01;100706.39;1797408;79;21069;-41
2022/01/12 01:59:28;;;;;;;9.95;4.67;;;;;;;-9.03;56.19;100699.11;1797278;79;20969;-41
2022/01/12 02:01:55;;;;;;;9.60;4.55;;;;;;;-8.93;56.23;100699.53;1797420;79;21006;-41
2022/01/12 02:04:21;;;;;;;6.72;4.12;;;;;;;-8.79;56.00;100699.86;1797450;79;21128;-41
2022/01/12 02:06:48;;;;;;;8.83;4.35;;;;;;;-8.67;55.63;100698.77;1805734;78;21456;-42
2022/01/12 02:09:16;;;;;;;9.43;4.75;;;;;;;-8.63;55.14;100699.98;1799144;79;22038;-41
2022/01/12 02:12:06;;;;;;;8.50;4.30;;;;;;;-8.63;54.99;100700.78;1708188;83;21111;-41
2022/01/12 02:14:33;;;;;;;8.23;4.05;;;;;;;-8.63;54.82;100700.78;1708334;84;21123;-41
2022/01/12 02:17:08;;;;;;;7.42;4.78;;;;;;;-8.64;54.67;100699.66;1740375;79;21108;-41
2022/01/12 02:20:06;;;;;;;8.18;5.00;;;;;;;-8.71;54.20;100704.13;1791158;79;20998;-41
2022/01/12 02:36:19;;;;;;;7.60;4.20;;;;;;;-8.89;54.81;100712.57;1796743;79;20942;-42
2022/01/12 02:41:33;;;;;;;11.25;4.65;;;;;;;-8.84;54.94;100700.95;1796640;79;21068;-41
2022/01/12 02:54:52;;;;;;;9.15;4.92;;;;;;;-8.63;54.55;100692.90;1796653;79;21004;-42
2022/01/12 02:57:18;;;;;;;10.93;5.47;;;;;;;-8.62;54.59;100697.16;1796652;79;21158;-41
2022/01/12 03:02:30;;;;;;;8.53;4.83;;;;;;;-8.56;54.63;100696.83;1796897;79;21072;-41
2022/01/12 03:07:40;;;;;;;9.50;4.85;;;;;;;-8.41;54.29;100700.06;1804494;79;21025;-42
2022/01/12 03:10:09;;;;;;;10.40;4.55;;;;;;;-8.36;54.16;100691.88;1804527;79;22345;-41
2022/01/12 03:12:37;;;;;;;8.28;4.83;;;;;;;-8.39;53.74;100687.03;1804676;79;21060;-42
2022/01/12 03:15:06;;;;;;;9.93;5.12;;;;;;;-8.43;53.85;100684.52;1804675;79;21072;-41
2022/01/12 03:17:34;;;;;;;8.73;4.40;;;;;;;-8.43;53.61;100683.20;1805001;79;21001;-41
2022/01/12 03:20:03;;;;;;;7.58;4.58;;;;;;;-8.43;53.42;100681.07;1804598;79;20986;-41
2022/01/12 03:22:31;;;;;;;8.05;4.60;;;;;;;-8.44;53.39;100685.52;1804995;79;21068;-42
2022/01/12 03:24:58;;;;;;;9.03;4.70;;;;;;;-8.46;53.36;100684.90;1804508;79;20962;-42
2022/01/12 03:27:26;;;;;;;12.60;5.90;;;;;;;-8.46;53.26;100682.27;1804643;79;21070;-42
2022/01/12 03:29:56;;;;;;;11.73;5.20;;;;;;;-8.47;53.23;100683.27;1804619;79;20921;-42
2022/01/12 03:32:36;;;;;;;11.65;5.67;;;;;;;-8.51;52.90;100682.06;1804535;79;21033;-41
2022/01/12 03:35:06;;;;;;;9.40;4.78;;;;;;;-8.53;52.79;100680.16;1802739;79;21215;-41
2022/01/12 04:05:40;;;;;;;8.53;5.20;;;;;;;-9.15;53.69;100691.02;1804619;79;20961;-41
2022/01/12 04:10:41;;;;;;;9.93;4.42;;;;;;;-9.11;53.26;100691.42;1804467;79;21354;-41
2022/01/12 04:13:08;;;;;;;7.12;4.28;;;;;;;-9.08;53.35;100698.89;1804591;79;20953;-41
2022/01/12 04:15:35;;;;;;;9.60;4.62;;;;;;;-9.01;53.21;100695.28;1793171;79;21005;-42
2022/01/12 04:18:02;;;;;;;10.95;5.53;;;;;;;-8.89;53.10;100699.43;1803824;79;21030;-41
2022/01/12 04:20:29;;;;;;;8.73;5.08;;;;;;;-8.93;52.89;100687.70;1804522;79;21001;-41
2022/01/12 04:25:41;;;;;;;10.45;5.47;;;;;;;-8.91;52.85;100692.27;1804517;79;20957;-41
2022/01/12 04:28:08;;;;;;;9.00;4.95;;;;;;;-8.91;52.67;100683.08;1804709;79;21088;-41
2022/01/12 04:30:35;;;;;;;12.00;5.40;;;;;;;-8.86;52.77;100679.34;1804390;79;21667;-41
2022/01/12 04:33:02;;;;;;;9.78;5.08;;;;;;;-8.83;52.46;100678.43;1804638;79;21033;-41
2022/01/12 04:35:35;;;;;;;10.72;5.53;;;;;;;-8.80;52.11;100681.14;1804847;79;21774;-41
2022/01/12 04:38:01;;;;;;;8.75;5.40;;;;;;;-8.80;51.83;100683.77;1804525;79;21563;-42
2022/01/12 04:40:28;;;;;;;7.37;4.95;;;;;;;-8.86;51.67;100677.50;1780225;79;20953;-41
2022/01/12 04:42:56;;;;;;;10.63;4.75;;;;;;;-8.83;51.40;100674.98;1804611;79;20969;-41
2022/01/12 04:50:25;;;;;;;11.33;5.33;;;;;;;-8.80;50.93;100679.83;1804762;79;21493;-42
2022/01/12 04:52:52;;;;;;;8.60;4.72;;;;;;;-8.78;50.76;100679.14;1804521;79;21006;-41
2022/01/12 04:55:19;;;;;;;7.67;4.80;;;;;;;-8.78;50.52;100683.08;1804732;79;20955;-41
2022/01/12 04:57:45;;;;;;;9.20;5.03;;;;;;;-8.83;50.33;100682.38;1804513;79;21559;-42
2022/01/12 05:00:16;;;;;;;8.35;5.17;;;;;;;-8.86;50.38;100680.13;1805055;79;21520;-42
2022/01/12 05:08:36;;;;;;;10.25;4.85;;;;;;;-8.84;50.05;100683.38;1804281;79;21519;-41
2022/01/12 05:13:34;;;;;;;7.65;4.92;;;;;;;-8.87;50.14;100679.03;1777512;80;21124;-41
2022/01/12 05:16:01;;;;;;;10.80;5.60;;;;;;;-8.87;50.15;100682.98;1777779;80;20945;-41
2022/01/12 05:18:29;;;;;;;12.30;4.85;;;;;;;-8.85;49.89;100680.94;1777574;80;20917;-41
2022/01/12 05:20:56;;;;;;;9.75;5.15;;;;;;;-8.88;49.84;100686.61;1744954;80;21036;-41
2022/01/12 05:24:14;;;;;;;11.10;4.87;;;;;;;-8.81;49.74;100680.87;1779476;79;22670;-40
2022/01/12 05:26:41;;;;;;;12.45;5.87;;;;;;;-8.87;49.70;100681.16;1738929;82;21002;-40
2022/01/12 05:29:08;;;;;;;9.88;5.70;;;;;;;-8.87;49.95;100685.60;1738803;82;21128;-40
2022/01/12 05:31:35;;;;;;;11.75;5.40;;;;;;;-8.83;49.93;100679.75;1738844;82;21010;-40
2022/01/12 05:34:03;;;;;;;11.33;6.05;;;;;;;-8.77;49.97;100678.14;1738998;81;21531;-40
2022/01/12 05:36:32;;;;;;;9.60;5.62;;;;;;;-8.79;49.94;100684.08;1738877;82;21038;-40
2022/01/12 05:39:01;;;;;;;9.60;4.97;;;;;;;-8.82;50.07;100680.05;1738980;82;20978;-40
2022/01/12 05:41:28;;;;;;;9.93;5.60;;;;;;;-8.84;49.95;100681.25;1738714;82;21138;-40
2022/01/12 05:43:57;;;;;;;8.88;5.42;;;;;;;-8.88;50.06;100686.61;1738731;82;20915;-40
2022/01/12 05:46:26;;;;;;;9.55;5.35;;;;;;;-8.86;50.10;100687.23;1739037;82;20986;-40
2022/01/12 05:51:40;;;;;;;12.03;5.87;;;;;;;-8.88;49.99;100691.86;1738719;82;21500;-40
2022/01/12 05:54:07;;;;;;;13.28;6.58;;;;;;;-8.87;50.04;100693.48;1738963;82;22053;-40
2022/01/12 05:56:34;;;;;;;10.90;6.20;;;;;;;-8.86;50.01;100694.58;1738758;82;21614;-40
2022/01/12 05:59:00;;;;;;;8.75;5.30;;;;;;;-8.83;50.05;100702.58;1738860;82;21002;-40
2022/01/12 06:01:27;;;;;;;11.30;6.40;;;;;;;-8.77;49.95;100703.11;1738754;82;21093;-40
2022/01/12 06:03:54;;;;;;;10.55;5.87;;;;;;;-8.70;49.78;100703.91;1739022;82;21081;-40
2022/01/12 06:06:22;;;;;;;10.65;5.28;;;;;;;-8.59;49.63;100703.31;1728999;81;21838;-40
2022/01/12 06:08:49;;;;;;;12.90;6.28;;;;;;;-8.56;49.56;100709.47;1726832;83;20945;-40
2022/01/12 06:11:17;;;;;;;12.88;6.45;;;;;;;-8.53;49.38;100705.64;1726861;82;21057;-40
2022/01/12 06:13:45;;;;;;;15.05;6.90;;;;;;;-8.54;49.47;100706.65;1726833;83;20996;-40
2022/01/12 06:16:12;;;;;;;15.00;7.45;;;;;;;-8.54;49.27;100711.41;1726911;83;21036;-40
2022/01/12 06:18:41;;;;;;;10.82;6.60;;;;;;;-8.58;49.17;100711.51;1726899;82;20977;-40
2022/01/12 06:21:08;;;;;;;13.05;7.47;;;;;;;-8.53;49.15;100711.72;1726841;83;20906;-40
2022/01/12 06:23:46;;;;;;;14.80;7.60;;;;;;;-8.54;48.65;100704.83;1727165;82;20988;-40
2022/01/12 06:26:13;;;;;;;14.80;8.18;;;;;;;-8.64;48.87;100705.73;1727078;83;21626;-40
2022/01/12 06:28:43;;;;;;;15.05;8.40;;;;;;;-8.64;48.87;100705.73;1727176;82;21527;-40
2022/01/12 06:31:10;;;;;;;14.87;7.30;;;;;;;-8.59;48.50;100711.20;1726918;83;21127;-40
2022/01/12 06:33:40;;;;;;;9.30;5.03;;;;;;;-8.56;48.34;100708.16;1727238;82;21040;-40
2022/01/12 06:36:09;;;;;;;11.15;6.42;;;;;;;-8.58;47.92;100709.38;1726467;82;21693;-40
2022/01/12 06:38:36;;;;;;;10.85;6.72;;;;;;;-8.63;48.15;100706.05;1726405;82;21006;-40
2022/01/12 06:41:04;;;;;;;10.80;6.42;;;;;;;-8.61;47.99;100706.64;1726469;83;21088;-40
2022/01/12 06:43:32;;;;;;;13.05;6.83;;;;;;;-8.58;47.94;100708.88;1726531;83;21160;-40
2022/01/12 06:45:59;;;;;;;11.33;7.08;;;;;;;-8.57;47.83;100710.51;1726398;83;21009;-40
2022/01/12 06:48:26;;;;;;;12.20;7.08;;;;;;;-8.61;47.98;100709.77;1726471;82;21033;-39
2022/01/12 06:50:53;;;;;;;12.70;6.80;;;;;;;-8.60;47.69;100716.14;1726534;83;21000;-40
2022/01/12 06:53:19;;;;;;;14.23;7.47;;;;;;;-8.62;47.83;100722.13;1726524;83;20981;-40
2022/01/12 06:55:46;;;;;;;10.82;6.95;;;;;;;-8.58;47.70;100725.97;1726553;83;21134;-40
2022/01/12 06:58:13;;;;;;;13.62;7.25;;;;;;;-8.63;47.53;100729.70;1726565;83;21510;-40
2022/01/12 07:00:40;;;;;;;13.48;7.15;;;;;;;-8.67;47.53;100738.19;1739759;81;21072;-40
2022/01/12 07:03:09;;;;;;;13.48;7.35;;;;;;;-8.68;47.54;100737.38;1755902;81;20988;-40
2022/01/12 07:05:37;;;;;;;10.23;6.17;;;;;;;-8.70;47.60;100740.70;1756017;81;21118;-40
2022/01/12 07:08:05;;;;;;;12.43;7.55;;;;;;;-8.68;47.66;100741.33;1756355;81;21132;-40
2022/01/12 07:10:34;;;;;;;13.98;7.47;;;;;;;-8.68;47.60;100749.20;1756201;81;20954;-43
2022/01/12 07:13:02;;;;;;;13.20;7.35;;;;;;;-8.71;47.73;100746.17;1755579;81;21536;-42
2022/01/12 07:15:30;;;;;;;10.75;6.62;;;;;;;-8.74;47.88;100746.05;1756398;81;21510;-43
2022/01/12 07:18:00;;;;;;;10.53;6.65;;;;;;;-8.76;47.96;100737.55;1720617;83;21013;-42
2022/01/12 07:20:27;;;;;;;11.18;6.22;;;;;;;-8.75;48.02;100743.62;1695096;83;21147;-43
2022/01/12 07:22:54;;;;;;;9.70;6.55;;;;;;;-8.75;48.02;100743.62;1719353;83;21060;-42
2022/01/12 07:25:22;;;;;;;12.80;6.72;;;;;;;-8.73;48.13;100748.19;1709925;83;21491;-42
2022/01/12 07:27:49;;;;;;;13.10;6.50;;;;;;;-8.79;48.22;100751.09;1715047;83;20997;-42
2022/01/12 07:30:16;;;;;;;12.93;6.72;;;;;;;-8.83;48.25;100748.06;1715042;83;21230;-43
2022/01/12 07:32:43;;;;;;;12.33;7.05;;;;;;;-8.79;48.47;100748.47;1714971;83;21953;-43
2022/01/12 07:35:10;;;;;;;11.45;6.37;;;;;;;-8.76;48.43;100748.06;1714717;83;20921;-42
2022/01/12 07:37:37;;;;;;;11.73;6.65;;;;;;;-8.74;48.39;100747.38;1714926;83;21717;-42
2022/01/12 07:40:06;;;;;;;10.55;6.45;;;;;;;-8.73;48.45;100742.42;1714907;83;21574;-42
2022/01/12 07:42:35;;;;;;;12.50;6.58;;;;;;;-8.73;48.61;100739.80;1750931;81;20997;-43
2022/01/12 07:45:05;;;;;;;13.32;6.65;;;;;;;-8.72;48.68;100738.80;1747069;81;21142;-42
2022/01/12 07:47:32;;;;;;;10.70;6.33;;;;;;;-8.78;49.14;100735.64;1726819;82;20932;-40
2022/01/12 07:49:59;;;;;;;9.73;5.10;;;;;;;-8.78;49.14;100735.64;1721083;83;20987;-39
2022/01/12 07:52:27;;;;;;;10.72;5.70;;;;;;;-8.75;49.14;100736.55;1743322;82;21021;-41
2022/01/12 07:54:54;;;;;;;8.18;5.10;;;;;;;-8.69;49.55;100733.13;1750868;82;21006;-40
2022/01/12 07:57:20;;;;;;;8.53;5.72;;;;;;;-8.69;49.55;100733.13;1750892;82;21672;-40
2022/01/12 07:59:47;;;;;;;10.82;5.67;;;;;;;-8.63;49.18;100734.15;1754490;81;20902;-40
2022/01/12 08:02:13;;;;;;;9.43;5.28;;;;;;;-8.59;49.33;100724.84;1755169;81;20971;-40
2022/01/12 08:04:41;;;;;;;8.58;5.47;;;;;;;-8.47;49.30;100734.55;1745648;82;21078;-41
2022/01/12 08:07:10;;;;;;;11.53;5.25;;;;;;;-8.44;49.06;100727.59;1721171;83;21041;-41
2022/01/12 08:09:38;;;;;;;13.18;5.90;;;;;;;-8.39;48.92;100740.95;1721059;83;21815;-41
2022/01/12 08:12:07;;;;;;;6.45;4.00;;;;;;;-8.33;48.85;100739.83;1721166;83;21039;-41
2022/01/12 08:14:34;;;;;;;7.95;5.03;;;;;;;-8.27;48.98;100746.86;1721271;83;21637;-41
2022/01/12 08:17:01;;;;;;;10.00;5.42;;;;;;;-8.16;48.81;100738.36;1721029;83;20985;-41
2022/01/12 08:19:28;;;;;;;10.23;5.30;;;;;;;-8.06;49.01;100744.03;1720976;83;21033;-40
2022/01/12 08:21:55;;;;;;;11.20;5.67;;;;;;;-7.93;48.47;100747.95;1721093;83;21130;-41
2022/01/12 08:24:22;;;;;;;9.93;6.37;;;;;;;-7.80;47.92;100736.10;1715896;83;21442;-41
2022/01/12 08:26:49;;;;;;;9.48;5.85;;;;;;;-7.80;47.92;100736.10;1733463;81;21038;-40
2022/01/12 08:29:16;;;;;;;9.38;5.67;;;;;;;-7.70;48.42;100738.31;1742605;82;21568;-41
2022/01/12 08:31:44;;;;;;;9.03;4.67;;;;;;;-7.50;48.33;100739.84;1743078;81;21868;-41
2022/01/12 08:34:11;;;;;;;9.88;5.30;;;;;;;-7.42;47.70;100744.09;1742972;82;21799;-40
2022/01/12 08:36:40;;;;;;;13.80;5.78;;;;;;;-7.57;47.55;100737.76;1742840;82;20974;-41
2022/01/12 08:39:08;;;;;;;12.60;5.65;;;;;;;-7.74;47.89;100735.25;1757261;81;20965;-41
2022/01/12 08:41:36;;;;;;;10.60;6.08;;;;;;;-7.85;48.47;100729.33;1678870;85;20954;-41
2022/01/12 08:44:07;;;;;;;8.18;5.00;;;;;;;-7.85;48.47;100729.33;1679138;85;20997;-41
2022/01/12 08:46:36;;;;;;;10.40;5.37;;;;;;;-7.82;48.37;100727.59;1679005;85;20976;-41
2022/01/12 08:49:03;;;;;;;10.82;4.60;;;;;;;-7.89;48.10;100723.37;1714139;82;21049;-41
2022/01/12 08:51:30;;;;;;;10.88;6.10;;;;;;;-8.08;48.46;100723.67;1742441;82;20986;-40
2022/01/12 08:53:56;;;;;;;8.00;5.15;;;;;;;-8.20;48.96;100719.56;1742869;82;20986;-41
2022/01/12 08:56:23;;;;;;;8.28;5.30;;;;;;;-8.21;49.42;100718.44;1743069;82;21060;-40
2022/01/12 08:58:51;;;;;;;9.05;5.30;;;;;;;-8.21;49.42;100718.44;1743009;81;21135;-41
2022/01/12 09:01:18;;;;;;;8.60;5.20;;;;;;;-8.15;49.25;100711.86;1758002;81;20926;-41
2022/01/12 09:03:45;;;;;;;8.63;5.40;;;;;;;-8.09;48.88;100714.19;1763310;81;20985;-41
2022/01/12 09:06:11;;;;;;;11.88;5.15;;;;;;;-8.09;48.88;100714.19;1742970;81;20925;-41
2022/01/12 09:08:38;;;;;;;10.95;5.65;;;;;;;-8.11;48.95;100717.52;1742876;82;21013;-40
2022/01/12 09:11:05;;;;;;;8.78;4.72;;;;;;;-8.14;48.93;100709.55;1749970;81;21851;-41
2022/01/12 09:13:32;;;;;;;11.45;5.45;;;;;;;-8.08;49.08;100705.26;1749691;81;20974;-41
2022/01/12 09:16:03;;;;;;;9.53;5.08;;;;;;;-7.91;49.01;100709.09;1742847;82;21588;-41
2022/01/12 09:18:28;;;;;;;11.90;5.65;;;;;;;-7.78;48.37;100710.87;1702461;82;20958;-41
2022/01/12 09:20:56;;;;;;;8.78;5.10;;;;;;;-7.67;48.15;100707.61;1698840;84;21523;-40
2022/01/12 09:23:23;;;;;;;11.10;5.47;;;;;;;-7.57;48.21;100707.98;1724450;82;21173;-41
2022/01/12 09:25:50;;;;;;;10.72;5.15;;;;;;;-7.51;47.83;100711.11;1702564;84;21579;-41
2022/01/12 09:28:17;;;;;;;8.03;5.00;;;;;;;-7.38;47.67;100712.87;1707558;84;21017;-41
2022/01/12 09:30:44;;;;;;;11.50;5.95;;;;;;;-7.33;47.10;100711.23;1743274;81;21002;-40
2022/01/12 09:33:11;;;;;;;8.73;4.90;;;;;;;-7.30;47.08;100706.03;1743303;82;21500;-40
2022/01/12 09:35:38;;;;;;;8.65;5.70;;;;;;;-7.19;46.52;100707.51;1742713;82;22201;-41
2022/01/12 09:38:04;;;;;;;8.53;5.60;;;;;;;-7.14;46.62;100705.05;1741282;82;20944;-40
2022/01/12 09:40:31;;;;;;;8.80;4.83;;;;;;;-6.98;46.59;100703.75;1741254;82;21604;-41
2022/01/12 09:43:04;;;;;;;9.45;5.42;;;;;;;-6.71;46.58;100704.38;1741442;82;21058;-41
2022/01/12 09:45:32;;;;;;;8.68;4.90;;;;;;;-6.39;45.90;100692.75;1742691;81;21037;-41
2022/01/12 09:47:58;;;;;;;12.65;5.08;;;;;;;-6.20;44.97;100701.04;1742778;82;21786;-41
2022/01/12 09:50:26;;;;;;;9.65;5.25;;;;;;;-5.97;44.98;100694.31;1745115;81;21014;-41
2022/01/12 09:52:52;;;;;;;9.40;5.17;;;;;;;-5.76;44.39;100694.65;1737455;82;21348;-41
2022/01/12 09:55:20;;;;;;;8.50;5.28;;;;;;;-5.73;44.25;100692.91;1742367;81;22078;-41
2022/01/12 09:57:46;;;;;;;12.28;5.60;;;;;;;-5.59;44.30;100692.75;1706929;84;21036;-41
2022/01/12 10:00:15;;;;;;;8.78;4.95;;;;;;;-5.45;43.29;100695.53;1705937;82;21152;-41
2022/01/12 10:02:42;;;;;;;9.65;5.58;;;;;;;-5.40;43.23;100696.48;1676674;84;21014;-41
2022/01/12 10:05:12;;;;;;;9.25;4.50;;;;;;;-5.30;43.07;100684.06;1712478;83;21056;-41
2022/01/12 10:07:38;;;;;;;9.18;5.12;;;;;;;-5.06;42.38;100675.70;1716679;83;20991;-41
2022/01/12 10:10:15;;;;;;;8.53;4.65;;;;;;;-5.06;42.38;100675.70;1699256;83;21055;-41
2022/01/12 10:12:53;;;;;;;8.08;5.65;;;;;;;-4.99;42.45;100679.08;1713979;82;21579;-41
2022/01/12 10:15:19;;;;;;;8.40;4.95;;;;;;;-4.93;42.41;100669.70;1741485;82;21032;-41
2022/01/12 10:17:46;;;;;;;10.55;5.35;;;;;;;-4.97;42.39;100669.88;1741620;82;21544;-41
2022/01/12 10:20:19;;;;;;;11.18;5.75;;;;;;;-4.95;42.42;100669.14;1742249;81;20987;-41
2022/01/12 10:23:02;;;;;;;8.18;5.12;;;;;;;-4.85;42.04;100676.02;1707579;83;21017;-41
2022/01/12 10:25:30;;;;;;;8.78;5.50;;;;;;;-4.78;41.63;100677.22;1749712;81;21094;-41
2022/01/12 10:27:58;;;;;;;9.73;5.17;;;;;;;-4.78;41.93;100677.22;1756503;81;21369;-41
2022/01/12 10:30:30;;;;;;;12.65;5.58;;;;;;;-4.75;41.42;100675.98;1718869;82;20973;-41
2022/01/12 10:33:06;;;;;;;9.95;5.40;;;;;;;-4.73;41.40;100674.70;1719566;83;21038;-41
2022/01/12 10:35:35;;;;;;;10.72;5.33;;;;;;;-4.89;41.30;100669.54;1719524;83;21531;-41
2022/01/12 10:38:16;;;;;;;10.85;5.72;;;;;;;-5.06;41.59;100675.19;1719772;83;21603;-41
2022/01/12 10:40:53;;;;;;;9.95;5.35;;;;;;;-5.28;41.50;100664.29;1718647;83;20980;-41
2022/01/12 10:43:39;;;;;;;10.65;5.33;;;;;;;-5.52;41.69;100676.33;1714655;83;20970;-41
2022/01/12 10:46:08;;;;;;;10.43;5.50;;;;;;;-5.72;42.21;100664.16;1711996;83;21073;-41
2022/01/12 10:48:52;;;;;;;10.50;5.60;;;;;;;-5.87;42.64;100663.75;1715727;83;26645;-41
2022/01/12 10:51:29;;;;;;;11.00;5.87;;;;;;;-5.75;43.27;100657.98;1719466;83;21169;-41
2022/01/12 10:54:04;;;;;;;9.13;4.40;;;;;;;-5.61;43.14;100663.91;1714919;83;21086;-41
2022/01/12 10:56:31;;;;;;;9.55;5.37;;;;;;;-5.39;42.71;100662.94;1711987;83;20910;-41
2022/01/12 10:58:58;;;;;;;9.83;5.60;;;;;;;-5.18;42.30;100657.69;1713993;83;21021;-41
2022/01/12 11:01:29;;;;;;;11.70;5.47;;;;;;;-5.01;42.02;100664.75;1714968;83;21351;-42
2022/01/12 11:03:56;;;;;;;9.70;5.05;;;;;;;-4.92;41.55;100651.48;1715974;83;21877;-41
2022/01/12 11:06:25;;;;;;;10.95;5.20;;;;;;;-4.95;41.15;100654.59;1720414;83;20933;-41
2022/01/12 11:08:51;;;;;;;10.35;5.33;;;;;;;-5.06;41.56;100649.27;1720553;83;21519;-41
2022/01/12 11:11:20;;;;;;;11.40;5.10;;;;;;;-5.13;41.92;100653.31;1715515;83;21060;-41
2022/01/12 11:13:48;;;;;;;11.53;4.65;;;;;;;-5.23;42.15;100657.04;1720710;83;21683;-41
2022/01/12 11:16:22;;;;;;;9.80;4.85;;;;;;;-5.21;42.11;100650.19;1720579;83;21052;-41
2022/01/12 11:18:49;;;;;;;9.68;4.67;;;;;;;-5.24;42.29;100652.78;1720628;83;20921;-42
2022/01/12 11:21:41;;;;;;;8.63;4.80;;;;;;;-5.31;41.93;100652.86;1694106;83;21091;-41
2022/01/12 11:24:14;;;;;;;8.08;4.75;;;;;;;-5.51;42.29;100650.17;1719677;83;21116;-41
2022/01/12 11:26:49;;;;;;;6.95;4.37;;;;;;;-5.63;42.69;100653.28;1750912;81;21519;-41
2022/01/12 11:29:26;;;;;;;8.30;4.62;;;;;;;-5.70;42.20;100650.20;1749552;82;21711;-41
2022/01/12 11:31:54;;;;;;;13.10;5.60;;;;;;;-5.87;42.60;100645.77;1749108;82;21026;-42
2022/01/12 11:34:21;;;;;;;12.68;6.50;;;;;;;-5.96;42.73;100639.98;1717722;82;21058;-41
2022/01/12 11:36:48;;;;;;;10.68;5.00;;;;;;;-6.20;43.20;100638.21;1749358;81;21086;-41
2022/01/12 11:39:17;;;;;;;11.60;5.10;;;;;;;-6.37;43.85;100638.46;1749496;82;21055;-41
2022/01/12 11:41:47;;;;;;;11.12;5.17;;;;;;;-6.43;44.64;100630.09;1711209;81;21838;-41
2022/01/12 11:44:29;;;;;;;12.88;4.92;;;;;;;-6.28;45.16;100636.64;1769168;81;20985;-42
2022/01/12 11:46:54;;;;;;;13.15;5.55;;;;;;;-5.95;45.14;100628.38;1769267;80;20926;-42
2022/01/12 11:49:40;;;;;;;10.80;5.62;;;;;;;-5.63;44.50;100628.19;1761587;81;20993;-42
2022/01/12 11:52:18;;;;;;;11.90;4.97;;;;;;;-5.37;43.78;100633.11;1750689;82;21049;-42
2022/01/12 11:54:47;;;;;;;8.08;4.53;;;;;;;-5.40;42.15;100632.25;1750755;81;21171;-42
2022/01/12 11:57:19;;;;;;;9.13;5.03;;;;;;;-5.57;42.73;100624.66;1715281;83;21586;-42
2022/01/12 12:00:09;;;;;;;8.23;4.65;;;;;;;-5.73;42.36;100633.48;1714680;83;21015;-42
2022/01/12 12:02:43;;;;;;;9.15;5.05;;;;;;;-5.97;42.71;100637.55;1749911;81;21010;-42
2022/01/12 12:05:20;;;;;;;9.25;5.25;;;;;;;-6.08;43.37;100627.20;1735202;82;21036;-42
2022/01/12 12:08:02;;;;;;;9.38;5.45;;;;;;;-5.86;43.41;100626.23;1721294;82;21955;-42
2022/01/12 12:10:31;;;;;;;8.28;5.33;;;;;;;-5.46;43.22;100622.05;1750573;81;20913;-42
2022/01/12 12:12:58;;;;;;;8.20;4.47;;;;;;;-5.08;42.62;100615.11;1714929;83;21562;-42
2022/01/12 12:15:25;;;;;;;7.30;4.75;;;;;;;-4.69;42.13;100616.84;1750488;82;20993;-42
2022/01/12 12:17:53;;;;;;;6.97;4.65;;;;;;;-4.39;41.13;100614.91;1714925;83;20968;-42
2022/01/12 12:20:22;;;;;;;11.57;5.03;;;;;;;-4.17;40.36;100606.68;1750891;81;21117;-42
2022/01/12 12:22:49;;;;;;;4.97;3.45;;;;;;;-4.10;39.22;100606.53;1751384;82;21026;-42
2022/01/12 12:25:23;;;;;;;6.58;4.40;;;;;;;-4.62;39.05;100603.00;1713979;83;21029;-42
2022/01/12 12:27:57;;;;;;;9.48;4.95;;;;;;;-5.25;39.96;100604.91;1758971;81;20902;-42
2022/01/12 12:30:25;;;;;;;7.10;4.90;;;;;;;-5.98;41.30;100607.70;1768778;81;21072;-42
2022/01/12 12:32:56;;;;;;;6.80;4.37;;;;;;;-6.54;42.58;100611.04;1769264;81;21162;-42
2022/01/12 12:35:30;;;;;;;8.38;5.08;;;;;;;-6.88;43.35;100611.02;1761195;81;21959;-42
2022/01/12 12:38:03;;;;;;;8.90;4.92;;;;;;;-7.26;44.34;100622.41;1751384;81;21076;-42
2022/01/12 12:40:45;;;;;;;6.87;3.77;;;;;;;-7.55;44.93;100622.47;1750132;82;20973;-42
2022/01/12 12:43:23;;;;;;;8.13;4.70;;;;;;;-7.88;45.79;100623.63;1749715;81;21025;-41
2022/01/12 12:45:56;;;;;;;9.43;5.30;;;;;;;-8.22;46.52;100636.08;1758670;81;21107;-41
2022/01/12 12:48:26;;;;;;;9.20;4.97;;;;;;;-8.34;47.47;100630.37;1768588;81;21654;-41
2022/01/12 12:51:12;;;;;;;8.08;4.83;;;;;;;-8.50;48.26;100619.28;1767306;81;21021;-42
2022/01/12 12:53:44;;;;;;;8.43;4.87;;;;;;;-8.50;48.26;100619.28;1750777;82;20930;-42
2022/01/12 12:56:16;;;;;;;9.43;4.78;;;;;;;-8.55;48.64;100617.77;1750249;82;21036;-42
2022/01/12 12:58:53;;;;;;;11.48;5.55;;;;;;;-8.51;48.73;100622.09;1750660;82;21575;-42
2022/01/12 13:01:22;;;;;;;8.20;5.10;;;;;;;-8.55;48.83;100623.02;1752333;81;21013;-41
2022/01/12 13:03:58;;;;;;;8.23;5.13;;;;;;;-8.49;48.98;100628.78;1769360;81;21033;-42
2022/01/12 13:06:32;;;;;;;10.58;5.20;;;;;;;-8.39;48.88;100634.44;1727551;81;21053;-41
2022/01/12 13:09:07;;;;;;;9.20;5.22;;;;;;;-8.42;48.76;100628.25;1721287;83;21017;-41
2022/01/12 13:11:39;;;;;;;7.87;5.35;;;;;;;-8.53;48.87;100618.88;1720055;83;21157;-42
2022/01/12 13:14:09;;;;;;;11.18;5.45;;;;;;;-8.75;49.30;100622.22;1721348;83;21024;-42
2022/01/12 13:16:45;;;;;;;9.35;5.83;;;;;;;-8.95;49.74;100623.53;1721298;83;21615;-42
2022/01/12 13:19:23;;;;;;;10.50;5.65;;;;;;;-9.17;50.25;100622.61;1721207;83;21552;-42
2022/01/12 13:21:49;;;;;;;7.28;5.03;;;;;;;-9.37;50.56;100618.63;1721386;82;21534;-42